Osage River (Missouri), Taberville (06918250)

StateMissouriLatestLow (1580 cfs)
RiverOsage RiverRatingObservedEstimated
Updated2021-01-19 22:45 (1 hour ago)Flood - The river is flooding. Obstacles can be treacherous or deadly. The river should be avoided at this stage for casual trips and definitely for the inexperienced. Trips should be attempted only with protective gear and equipment.Flood(none)38403
Discharge1580 cfs (median: 610 cfs)High - The river is high and potentially dangerous, especially for the young and / or inexperienced. Normal stream obstacles are sometimes difficult to navigate. Extended distances can be attempted, but canoe travel may not be advisable.High(none)7197
Height11.89 feetGood - Conditions are ideal for a canoe or kayak. Boats typically will drag on fewer than one-quarter of riffles, if at all, and portages are unnecessary or rare. Normal float lengths can be attempted without a problem.Good(none)4305
TrendFalling (falling over 24 hours)Low - River is low but can still be floated. Some riffles are okay but most come with significant dragging and might need a portage. Float lengths should be reduced to accommodate low flow, dragging, and portages.Low(none)1188
USGSExternal icon USGS Site (External icon Google Maps)Poor - River is too low to float comfortably. Most or all riffles will drag or must be portaged and some obstacles (such as slick shelf rock) cause undue problems. Avoid the river at this stage for casual paddling trips.Poor(none)50

Trending Data

Plot Image

Trips for Osage River (Missouri), Taberville (06918250)

DateStartEndDistanceConditionDischargeHeightFishingDetails

A total of 0 rows are displayed.

Condition Descriptions

Fishing Conditions

Fish Species

Notes

Classic Trip List

The classic River Trips application is still available for use. It is updated with the new system using a data retrofit. It is no longer maintained. The original River Trips application is no longer updated (as of 1 Dec 2016) but can be checked for errors or for the condition of the data before it was converted to the new system.

Gauge Data Table

ObservationHeightDischargeMaximum
Discharge
Minimum
Discharge
Mean
Discharge
P05P10P20P25P50
(Median)
P75P80P90P95
2021-01-19 22:45 11.89 1580 16900 (2020) 50 (2013) 4270 50 228 322 610 7980 12100 16900
2021-01-19 21:45 11.95 1630 16900 (2020) 50 (2013) 4270 50 228 322 610 7980 12100 16900
2021-01-19 20:45 12.02 1690 16900 (2020) 50 (2013) 4270 50 228 322 610 7980 12100 16900
2021-01-19 19:45 12.08 1740 16900 (2020) 50 (2013) 4270 50 228 322 610 7980 12100 16900
2021-01-19 18:45 12.10 1750 16900 (2020) 50 (2013) 4270 50 228 322 610 7980 12100 16900
2021-01-19 17:45 12.09 1750 16900 (2020) 50 (2013) 4270 50 228 322 610 7980 12100 16900
2021-01-19 16:45 12.06 1720 16900 (2020) 50 (2013) 4270 50 228 322 610 7980 12100 16900
2021-01-19 15:45 12.00 1670 16900 (2020) 50 (2013) 4270 50 228 322 610 7980 12100 16900
2021-01-19 14:45 11.96 1640 16900 (2020) 50 (2013) 4270 50 228 322 610 7980 12100 16900
2021-01-19 13:45 11.93 1610 16900 (2020) 50 (2013) 4270 50 228 322 610 7980 12100 16900
2021-01-19 12:45 11.96 1640 16900 (2020) 50 (2013) 4270 50 228 322 610 7980 12100 16900
2021-01-19 11:45 12.00 1670 16900 (2020) 50 (2013) 4270 50 228 322 610 7980 12100 16900
2021-01-19 10:45 12.05 1710 16900 (2020) 50 (2013) 4270 50 228 322 610 7980 12100 16900
2021-01-19 09:45 12.07 1730 16900 (2020) 50 (2013) 4270 50 228 322 610 7980 12100 16900
2021-01-19 08:45 12.09 1750 16900 (2020) 50 (2013) 4270 50 228 322 610 7980 12100 16900
2021-01-19 07:45 12.09 1750 16900 (2020) 50 (2013) 4270 50 228 322 610 7980 12100 16900
2021-01-19 06:45 12.09 1750 16900 (2020) 50 (2013) 4270 50 228 322 610 7980 12100 16900
2021-01-19 05:45 12.09 1750 16900 (2020) 50 (2013) 4270 50 228 322 610 7980 12100 16900
2021-01-19 04:45 12.06 1720 16900 (2020) 50 (2013) 4270 50 228 322 610 7980 12100 16900
2021-01-19 03:45 12.08 1740 16900 (2020) 50 (2013) 4270 50 228 322 610 7980 12100 16900
2021-01-19 02:45 12.09 1750 16900 (2020) 50 (2013) 4270 50 228 322 610 7980 12100 16900
2021-01-19 01:45 12.09 1750 16900 (2020) 50 (2013) 4270 50 228 322 610 7980 12100 16900
2021-01-19 00:45 12.09 1750 16900 (2020) 50 (2013) 4270 50 228 322 610 7980 12100 16900
2021-01-18 23:45 12.07 1730 16400 (2020) 50 (2013) 4090 50 149 317 787 7300 10400 16400
2021-01-18 22:45 12.06 1720 16400 (2020) 50 (2013) 4090 50 149 317 787 7300 10400 16400
2021-01-18 21:45 12.06 1720 16400 (2020) 50 (2013) 4090 50 149 317 787 7300 10400 16400
2021-01-18 20:45 12.08 1740 16400 (2020) 50 (2013) 4090 50 149 317 787 7300 10400 16400
2021-01-18 19:45 12.11 1760 16400 (2020) 50 (2013) 4090 50 149 317 787 7300 10400 16400
2021-01-18 18:45 12.11 1760 16400 (2020) 50 (2013) 4090 50 149 317 787 7300 10400 16400
2021-01-18 17:45 12.06 1720 16400 (2020) 50 (2013) 4090 50 149 317 787 7300 10400 16400
2021-01-18 16:45 12.01 1680 16400 (2020) 50 (2013) 4090 50 149 317 787 7300 10400 16400
2021-01-18 15:45 11.92 1600 16400 (2020) 50 (2013) 4090 50 149 317 787 7300 10400 16400
2021-01-18 14:45 11.94 1620 16400 (2020) 50 (2013) 4090 50 149 317 787 7300 10400 16400
2021-01-18 13:45 11.97 1650 16400 (2020) 50 (2013) 4090 50 149 317 787 7300 10400 16400
2021-01-18 12:45 11.98 1660 16400 (2020) 50 (2013) 4090 50 149 317 787 7300 10400 16400
2021-01-18 11:45 12.11 1760 16400 (2020) 50 (2013) 4090 50 149 317 787 7300 10400 16400
2021-01-18 10:45 12.12 1770 16400 (2020) 50 (2013) 4090 50 149 317 787 7300 10400 16400
2021-01-18 09:45 12.12 1770 16400 (2020) 50 (2013) 4090 50 149 317 787 7300 10400 16400
2021-01-18 08:45 12.11 1760 16400 (2020) 50 (2013) 4090 50 149 317 787 7300 10400 16400
2021-01-18 07:45 12.08 1740 16400 (2020) 50 (2013) 4090 50 149 317 787 7300 10400 16400
2021-01-18 06:45 12.05 1710 16400 (2020) 50 (2013) 4090 50 149 317 787 7300 10400 16400
2021-01-18 05:45 12.03 1700 16400 (2020) 50 (2013) 4090 50 149 317 787 7300 10400 16400
2021-01-18 04:45 12.01 1680 16400 (2020) 50 (2013) 4090 50 149 317 787 7300 10400 16400
2021-01-18 03:45 12.02 1690 16400 (2020) 50 (2013) 4090 50 149 317 787 7300 10400 16400
2021-01-18 02:45 12.03 1700 16400 (2020) 50 (2013) 4090 50 149 317 787 7300 10400 16400
2021-01-18 01:45 12.06 1720 16400 (2020) 50 (2013) 4090 50 149 317 787 7300 10400 16400
2021-01-18 00:45 12.09 1750 16400 (2020) 50 (2013) 4090 50 149 317 787 7300 10400 16400

A total of 47 rows are displayed for years 2012 through 2020.